createdAt,value
2022-07-29T00:01:19.306Z,101271.34
2022-07-29T00:04:22.287Z,101273.84
2022-07-29T00:07:24.861Z,101269.16
2022-07-29T00:10:26.822Z,101274.69
2022-07-29T00:13:32.402Z,101273.63
2022-07-29T00:16:35.776Z,101272.75
2022-07-29T00:19:37.947Z,101279.13
2022-07-29T00:22:40.483Z,101286.78
2022-07-29T00:25:42.511Z,101281.53
2022-07-29T00:28:44.441Z,101280.44
2022-07-29T00:31:46.623Z,101268.59
2022-07-29T00:35:07.162Z,101277.91
2022-07-29T00:38:09.179Z,101273.28
2022-07-29T00:41:11.317Z,101274.28
2022-07-29T00:44:13.712Z,101280.66
2022-07-29T00:47:15.822Z,101276.47
2022-07-29T00:50:18.692Z,101280.88
2022-07-29T00:53:21.424Z,101270.72
2022-07-29T00:56:24.135Z,101273.47
2022-07-29T00:59:34.722Z,101251.50
2022-07-29T01:02:37.471Z,101259.84
2022-07-29T01:05:48.157Z,101261.28
2022-07-29T01:08:53.654Z,101262.50
2022-07-29T01:11:55.867Z,101268.84
2022-07-29T01:14:57.874Z,101268.34
2022-07-29T01:18:07.332Z,101270.03
2022-07-29T01:21:31.651Z,101273.25
2022-07-29T01:24:58.016Z,101273.25
2022-07-29T01:28:12.448Z,101277.09
2022-07-29T01:31:24.922Z,101276.84
2022-07-29T01:34:36.548Z,101276.75
2022-07-29T01:38:06.551Z,101280.72
2022-07-29T01:41:13.685Z,101278.59
2022-07-29T01:44:23.875Z,101281.72
2022-07-29T01:47:32.706Z,101279.88
2022-07-29T01:50:50.518Z,101280.50
2022-07-29T01:54:06.098Z,101272.59
2022-07-29T01:57:10.647Z,101274.53
2022-07-29T02:00:13.732Z,101273.81
2022-07-29T02:03:19.893Z,101275.59
2022-07-29T02:06:24.360Z,101283.28
2022-07-29T02:09:27.677Z,101286.38
2022-07-29T02:12:32.104Z,101289.59
2022-07-29T02:15:36.644Z,101290.66
2022-07-29T02:18:41.985Z,101295.94
2022-07-29T02:21:45.088Z,101287.31
2022-07-29T02:24:48.764Z,101290.91
2022-07-29T02:27:52.825Z,101301.53
2022-07-29T02:30:58.577Z,101303.56
2022-07-29T02:34:03.595Z,101311.56
2022-07-29T02:37:06.257Z,101310.97
2022-07-29T02:40:12.494Z,101295.34
2022-07-29T02:43:15.234Z,101292.34
2022-07-29T02:46:28.913Z,101300.47
2022-07-29T02:49:42.054Z,101304.63
2022-07-29T02:53:10.027Z,101311.34
2022-07-29T02:56:15.940Z,101314.81
2022-07-29T02:59:23.223Z,101312.06
2022-07-29T03:02:28.282Z,101310.75
2022-07-29T03:05:30.736Z,101311.94
2022-07-29T03:08:33.730Z,101315.28
2022-07-29T03:11:44.300Z,101319.44
2022-07-29T03:14:53.445Z,101315.88
2022-07-29T03:17:56.660Z,101321.16
2022-07-29T03:20:58.937Z,101318.97
2022-07-29T03:24:01.003Z,101318.13
2022-07-29T03:27:04.430Z,101311.47
2022-07-29T03:30:08.270Z,101313.13
2022-07-29T03:33:13.610Z,101319.44
2022-07-29T03:36:17.213Z,101325.22
2022-07-29T03:39:26.644Z,101324.59
2022-07-29T03:42:34.403Z,101323.78
2022-07-29T03:45:37.439Z,101317.91
2022-07-29T03:48:43.777Z,101315.16
2022-07-29T03:51:46.054Z,101325.69
2022-07-29T03:54:48.724Z,101313.38
2022-07-29T03:57:51.773Z,101321.13
2022-07-29T04:00:56.012Z,101332.75
2022-07-29T04:03:58.153Z,101329.53
2022-07-29T04:07:00.246Z,101330.34
2022-07-29T04:10:02.458Z,101341.47
2022-07-29T04:13:04.483Z,101341.81
2022-07-29T04:16:06.657Z,101339.91
2022-07-29T04:19:08.864Z,101345.16
2022-07-29T04:22:10.911Z,101343.03
2022-07-29T04:25:12.948Z,101337.53
2022-07-29T04:28:14.920Z,101344.69
2022-07-29T04:31:22.485Z,101328.78
2022-07-29T04:34:28.131Z,101343.59
2022-07-29T04:37:30.331Z,101343.59
2022-07-29T04:40:34.082Z,101346.97
2022-07-29T04:43:37.042Z,101349.72
2022-07-29T04:46:39.291Z,101354.13
2022-07-29T04:49:41.357Z,101346.69
2022-07-29T04:52:43.831Z,101350.06
2022-07-29T04:55:46.388Z,101350.91
2022-07-29T04:58:48.660Z,101347.06
2022-07-29T05:01:50.854Z,101348.16
2022-07-29T05:04:53.009Z,101348.97
2022-07-29T05:07:55.119Z,101352.56
2022-07-29T05:10:57.252Z,101351.72
2022-07-29T05:13:59.290Z,101357.84
2022-07-29T05:17:01.400Z,101358.91
2022-07-29T05:20:03.607Z,101362.84
2022-07-29T05:23:05.668Z,101357.63
2022-07-29T05:26:07.699Z,101355.69
2022-07-29T05:29:42.764Z,101361.19
2022-07-29T05:32:32.127Z,101352.09
2022-07-29T05:35:36.028Z,101349.94
2022-07-29T05:38:38.480Z,101351.28
2022-07-29T05:41:41.275Z,101360.59
2022-07-29T05:44:43.325Z,101357.25
2022-07-29T05:47:45.380Z,101359.75
2022-07-29T05:50:47.396Z,101359.75
2022-07-29T05:53:49.940Z,101362.50
2022-07-29T05:56:51.902Z,101373.28
2022-07-29T05:59:54.016Z,101367.78
2022-07-29T06:02:56.101Z,101361.06
2022-07-29T06:05:58.109Z,101366.22
2022-07-29T06:09:00.467Z,101382.00
2022-07-29T06:12:15.472Z,101382.84
2022-07-29T06:15:17.566Z,101387.03
2022-07-29T06:18:21.792Z,101382.59
2022-07-29T06:21:23.908Z,101389.19
2022-07-29T06:24:25.893Z,101387.53
2022-07-29T06:27:27.961Z,101395.50
2022-07-29T06:30:30.603Z,101397.34
2022-07-29T06:33:32.783Z,101392.41
2022-07-29T06:36:39.621Z,101399.81
2022-07-29T06:39:42.020Z,101400.66
2022-07-29T06:42:44.915Z,101404.84
2022-07-29T06:45:46.965Z,101407.59
2022-07-29T06:48:49.744Z,101411.19
2022-07-29T06:51:52.530Z,101410.56
2022-07-29T06:54:56.057Z,101414.66
2022-07-29T06:57:58.094Z,101411.09
2022-07-29T07:01:03.222Z,101403.41
2022-07-29T07:04:05.485Z,101407.59
2022-07-29T07:07:07.543Z,101409.28
2022-07-29T07:10:09.891Z,101404.50
2022-07-29T07:13:12.253Z,101415.59
2022-07-29T07:16:14.367Z,101412.63
2022-07-29T07:19:16.528Z,101413.47
2022-07-29T07:22:18.702Z,101417.88
2022-07-29T07:25:20.892Z,101425.03
2022-07-29T07:28:24.834Z,101422.28
2022-07-29T07:31:27.329Z,101427.56
2022-07-29T07:34:31.117Z,101428.41
2022-07-29T07:37:33.225Z,101432.00
2022-07-29T07:40:35.370Z,101426.75
2022-07-29T07:43:37.495Z,101411.44
2022-07-29T07:46:39.605Z,101431.16
2022-07-29T07:49:41.738Z,101427.31
2022-07-29T07:52:52.005Z,101433.91
2022-07-29T07:56:09.810Z,101438.31
2022-07-29T07:59:13.292Z,101433.66
2022-07-29T08:02:15.496Z,101440.25
2022-07-29T08:05:20.338Z,101444.91
2022-07-29T08:08:22.434Z,101449.59
2022-07-29T08:11:24.731Z,101447.66
2022-07-29T08:14:26.836Z,101461.41
2022-07-29T08:17:29.428Z,101465.00
2022-07-29T08:20:34.234Z,101456.75
2022-07-29T08:23:47.062Z,101458.66
2022-07-29T08:26:50.769Z,101465.38
2022-07-29T08:29:52.793Z,101469.78
2022-07-29T08:32:55.857Z,101473.63
2022-07-29T08:35:58.331Z,101479.47
2022-07-29T08:39:01.094Z,101483.91
2022-07-29T08:42:03.349Z,101489.41
2022-07-29T08:45:06.374Z,101483.69
2022-07-29T08:48:08.442Z,101484.50
2022-07-29T08:51:17.894Z,101484.28
2022-07-29T08:54:20.993Z,101487.91
2022-07-29T08:57:24.219Z,101485.97
2022-07-29T09:00:29.965Z,101474.50
2022-07-29T09:03:35.636Z,101482.97
2022-07-29T09:06:40.803Z,101487.41
2022-07-29T09:09:43.899Z,101490.66
2022-07-29T09:12:45.953Z,101491.69
2022-07-29T09:15:48.244Z,101490.41
2022-07-29T09:18:50.310Z,101485.16
2022-07-29T09:21:59.168Z,101491.69
2022-07-29T09:25:01.256Z,101498.66
2022-07-29T09:28:11.351Z,101497.94
2022-07-29T09:31:13.436Z,101499.63
2022-07-29T09:34:18.667Z,101507.03
2022-07-29T09:37:28.821Z,101498.19
2022-07-29T09:40:30.807Z,101497.56
2022-07-29T09:43:33.318Z,101495.88
2022-07-29T09:46:35.865Z,101494.91
2022-07-29T09:49:52.932Z,101491.50
2022-07-29T09:52:54.965Z,101488.25
2022-07-29T09:55:57.074Z,101494.59
2022-07-29T09:59:17.364Z,101483.34
2022-07-29T10:02:23.850Z,101484.16
2022-07-29T10:05:36.556Z,101484.44
2022-07-29T10:08:39.449Z,101485.50
2022-07-29T10:11:49.425Z,101482.97
2022-07-29T10:14:52.297Z,101486.56
2022-07-29T10:17:55.969Z,101482.16
2022-07-29T10:20:58.237Z,101482.97
2022-07-29T10:24:01.243Z,101481.91
2022-07-29T10:27:06.182Z,101473.63
2022-07-29T10:30:09.077Z,101473.63
2022-07-29T10:33:23.761Z,101469.00
2022-07-29T10:37:07.346Z,101475.34
2022-07-29T10:40:57.377Z,101477.00
2022-07-29T10:44:17.112Z,101474.25
2022-07-29T10:47:25.738Z,101485.50
2022-07-29T10:50:27.763Z,101483.81
2022-07-29T10:53:48.362Z,101481.06
2022-07-29T10:56:50.430Z,101476.38
2022-07-29T11:00:11.400Z,101469.84
2022-07-29T11:03:52.221Z,101471.75
2022-07-29T11:07:11.242Z,101471.50
2022-07-29T11:10:14.057Z,101464.91
2022-07-29T11:13:52.332Z,101474.84
2022-07-29T11:17:06.510Z,101472.94
2022-07-29T11:20:33.565Z,101475.69
2022-07-29T11:23:42.793Z,101474.84
2022-07-29T11:26:45.441Z,101477.09
2022-07-29T11:29:53.769Z,101473.28
2022-07-29T11:32:55.960Z,101473.03
2022-07-29T11:36:16.808Z,101473.66
2022-07-29T11:39:36.300Z,101480.00
2022-07-29T11:42:44.585Z,101474.22
2022-07-29T11:45:47.929Z,101475.94
2022-07-29T11:48:50.252Z,101465.97
2022-07-29T11:51:56.497Z,101465.50
2022-07-29T11:55:09.693Z,101463.09
2022-07-29T11:58:13.241Z,101450.50
2022-07-29T12:01:18.673Z,101442.88
2022-07-29T12:04:20.948Z,101429.69
2022-07-29T12:07:33.702Z,101408.03
2022-07-29T12:10:37.549Z,101422.63
2022-07-29T12:13:40.873Z,101403.13
2022-07-29T12:16:42.862Z,101425.72
2022-07-29T12:19:46.316Z,101423.31
2022-07-29T12:22:50.327Z,101419.72
2022-07-29T12:25:52.507Z,101411.97
2022-07-29T12:28:56.141Z,101417.56
2022-07-29T12:31:59.792Z,101413.38
2022-07-29T12:35:14.435Z,101407.84
2022-07-29T12:38:16.855Z,101406.81
2022-07-29T12:41:18.900Z,101405.94
2022-07-29T12:44:20.999Z,101387.63
2022-07-29T12:47:24.019Z,101381.38
2022-07-29T12:50:26.685Z,101388.66
2022-07-29T12:53:29.472Z,101388.38
2022-07-29T12:56:46.821Z,101377.13
2022-07-29T13:00:09.298Z,101371.38
2022-07-29T13:03:11.349Z,101378.81
2022-07-29T13:06:31.715Z,101376.88
2022-07-29T13:09:49.408Z,101368.63
2022-07-29T13:13:16.333Z,101350.69
2022-07-29T13:16:18.439Z,101361.19
2022-07-29T13:19:20.506Z,101363.75
2022-07-29T13:22:24.556Z,101364.19
2022-07-29T13:25:32.883Z,101363.50
2022-07-29T13:28:35.338Z,101357.75
2022-07-29T13:31:37.437Z,101370.31
2022-07-29T13:34:39.473Z,101365.19
2022-07-29T13:37:41.619Z,101367.19
2022-07-29T13:40:43.993Z,101354.84
2022-07-29T13:43:46.020Z,101359.25
2022-07-29T13:46:52.127Z,101360.91
2022-07-29T13:49:54.317Z,101353.47
2022-07-29T13:52:56.453Z,101353.25
2022-07-29T13:55:58.527Z,101355.75
2022-07-29T13:59:01.216Z,101362.09
2022-07-29T14:02:03.665Z,101352.44
2022-07-29T14:05:10.936Z,101345.47
2022-07-29T14:08:13.030Z,101336.28
2022-07-29T14:11:15.078Z,101337.09
2022-07-29T14:14:17.269Z,101313.53
2022-07-29T14:17:19.280Z,101322.59
2022-07-29T14:20:21.373Z,101316.50
2022-07-29T14:23:23.358Z,101323.44
2022-07-29T14:26:25.598Z,101314.00
2022-07-29T14:29:37.312Z,101311.25
2022-07-29T14:32:39.877Z,101305.97
2022-07-29T14:35:41.868Z,101305.25
2022-07-29T14:38:44.629Z,101301.13
2022-07-29T14:41:46.684Z,101312.69
2022-07-29T14:44:50.490Z,101307.19
2022-07-29T14:47:55.111Z,101302.06
2022-07-29T14:51:04.410Z,101307.06
2022-07-29T14:54:07.001Z,101294.38
2022-07-29T14:57:09.809Z,101296.31
2022-07-29T15:00:12.513Z,101286.81
2022-07-29T15:03:23.953Z,101285.53
2022-07-29T15:06:27.075Z,101279.66
2022-07-29T15:09:29.269Z,101280.28
2022-07-29T15:12:32.365Z,101284.06
2022-07-29T15:15:34.424Z,101285.78
2022-07-29T15:18:38.750Z,101285.78
2022-07-29T15:21:47.907Z,101281.09
2022-07-29T15:25:01.733Z,101286.81
2022-07-29T15:28:07.940Z,101285.78
2022-07-29T15:31:10.331Z,101273.91
2022-07-29T15:34:12.453Z,101273.03
2022-07-29T15:37:14.775Z,101271.38
2022-07-29T15:40:17.248Z,101277.66
2022-07-29T15:43:19.380Z,101284.59
2022-07-29T15:46:39.774Z,101293.91
2022-07-29T15:49:46.742Z,101294.16
2022-07-29T15:52:50.974Z,101295.50
2022-07-29T15:55:53.049Z,101288.56
2022-07-29T15:58:55.116Z,101299.84
2022-07-29T16:01:57.597Z,101297.00
2022-07-29T16:04:59.646Z,101299.50
2022-07-29T16:08:01.667Z,101299.75
2022-07-29T16:11:03.812Z,101305.25
2022-07-29T16:14:05.870Z,101310.16
2022-07-29T16:17:14.982Z,101306.72
2022-07-29T16:20:17.371Z,101315.59
2022-07-29T16:23:19.529Z,101310.31
2022-07-29T16:26:21.632Z,101306.13
2022-07-29T16:29:23.910Z,101303.03
2022-07-29T16:32:26.238Z,101302.34
2022-07-29T16:35:39.681Z,101295.66
2022-07-29T16:38:47.176Z,101286.00
2022-07-29T16:41:49.815Z,101297.00
2022-07-29T16:44:51.807Z,101296.16
2022-07-29T16:48:00.021Z,101300.25
2022-07-29T16:51:02.595Z,101292.47
2022-07-29T16:54:04.960Z,101301.81
2022-07-29T16:57:07.219Z,101291.66
2022-07-29T17:00:10.139Z,101291.03
2022-07-29T17:03:12.787Z,101286.28
2022-07-29T17:06:15.613Z,101290.13
2022-07-29T17:09:17.744Z,101289.25
2022-07-29T17:12:19.844Z,101285.69
2022-07-29T17:15:21.887Z,101282.69
2022-07-29T17:18:23.973Z,101279.94
2022-07-29T17:21:27.365Z,101277.19
2022-07-29T17:24:29.406Z,101269.16
2022-07-29T17:27:32.251Z,101265.00
2022-07-29T17:30:34.326Z,101270.13
2022-07-29T17:33:36.568Z,101272.19
2022-07-29T17:36:38.855Z,101279.22
2022-07-29T17:39:42.367Z,101279.44
2022-07-29T17:42:44.448Z,101274.69
2022-07-29T17:45:49.362Z,101281.63
2022-07-29T17:48:54.676Z,101274.69
2022-07-29T17:52:00.755Z,101276.59
2022-07-29T17:55:03.268Z,101262.66
2022-07-29T17:58:08.529Z,101273.03
2022-07-29T18:01:11.007Z,101276.25
2022-07-29T18:04:13.136Z,101274.09
2022-07-29T18:07:15.247Z,101264.56
2022-07-29T18:10:17.324Z,101276.00
2022-07-29T18:13:24.313Z,101275.66
2022-07-29T18:16:26.504Z,101280.59
2022-07-29T18:19:29.952Z,101275.31
2022-07-29T18:22:32.053Z,101271.63
2022-07-29T18:25:34.277Z,101276.53
2022-07-29T18:28:36.360Z,101273.78
2022-07-29T18:31:38.762Z,101274.97
2022-07-29T18:34:40.820Z,101276.88
2022-07-29T18:38:00.763Z,101272.94
2022-07-29T18:41:04.465Z,101281.53
2022-07-29T18:44:06.670Z,101285.97
2022-07-29T18:47:08.702Z,101291.47
2022-07-29T18:50:14.001Z,101294.22
2022-07-29T18:53:16.395Z,101295.03
2022-07-29T18:56:18.601Z,101298.06
2022-07-29T18:59:21.550Z,101304.38
2022-07-29T19:02:23.913Z,101298.88
2022-07-29T19:05:26.058Z,101300.81
2022-07-29T19:08:28.187Z,101293.03
2022-07-29T19:11:30.280Z,101303.56
2022-07-29T19:14:32.360Z,101298.09
2022-07-29T19:17:34.456Z,101313.94
2022-07-29T19:20:36.487Z,101311.81
2022-07-29T19:24:00.017Z,101313.13
2022-07-29T19:27:00.834Z,101308.34
2022-07-29T19:30:06.002Z,101316.97
2022-07-29T19:33:08.063Z,101316.84
2022-07-29T19:36:11.036Z,101323.78
2022-07-29T19:39:13.201Z,101324.84
2022-07-29T19:42:15.252Z,101329.53
2022-07-29T19:45:17.993Z,101335.25
2022-07-29T19:48:20.049Z,101319.00
2022-07-29T19:51:23.556Z,101315.53
2022-07-29T19:54:26.654Z,101324.38
2022-07-29T19:57:28.831Z,101315.19
2022-07-29T20:00:43.615Z,101310.88
2022-07-29T20:03:46.687Z,101314.81
2022-07-29T20:06:49.637Z,101320.91
2022-07-29T20:09:54.917Z,101314.59
2022-07-29T20:12:57.004Z,101309.91
2022-07-29T20:16:00.508Z,101308.00
2022-07-29T20:19:02.875Z,101308.84
2022-07-29T20:22:05.381Z,101310.75
2022-07-29T20:25:10.054Z,101307.16
2022-07-29T20:28:12.203Z,101300.84
2022-07-29T20:31:16.728Z,101303.59
2022-07-29T20:34:19.036Z,101305.47
2022-07-29T20:37:21.177Z,101306.81
2022-07-29T20:40:24.784Z,101303.47
2022-07-29T20:43:27.398Z,101302.16
2022-07-29T20:46:29.771Z,101301.53
2022-07-29T20:49:32.160Z,101299.03
2022-07-29T20:52:34.783Z,101292.47
2022-07-29T20:55:36.758Z,101301.53
2022-07-29T20:58:40.481Z,101309.31
2022-07-29T21:01:42.550Z,101305.13
2022-07-29T21:04:44.591Z,101314.81
2022-07-29T21:07:46.710Z,101311.22
2022-07-29T21:10:48.876Z,101310.41
2022-07-29T21:13:50.916Z,101305.97
2022-07-29T21:16:53.180Z,101293.31
2022-07-29T21:19:55.517Z,101299.66
2022-07-29T21:22:58.134Z,101299.41
2022-07-29T21:26:00.345Z,101286.72
2022-07-29T21:29:02.456Z,101276.81
2022-07-29T21:32:04.979Z,101287.09
2022-07-29T21:35:19.136Z,101269.19
2022-07-29T21:38:29.535Z,101264.88
2022-07-29T21:41:31.684Z,101262.69
2022-07-29T21:44:35.449Z,101260.19
2022-07-29T21:47:37.447Z,101268.19
2022-07-29T21:50:39.823Z,101273.22
2022-07-29T21:53:41.814Z,101265.22
2022-07-29T21:56:43.883Z,101263.28
2022-07-29T21:59:53.393Z,101259.72
2022-07-29T22:02:55.519Z,101262.47
2022-07-29T22:05:57.597Z,101255.03
2022-07-29T22:08:59.641Z,101257.19
2022-07-29T22:12:02.722Z,101257.19
2022-07-29T22:15:05.187Z,101247.28
2022-07-29T22:18:07.266Z,101240.13
2022-07-29T22:21:09.353Z,101247.28
2022-07-29T22:24:11.438Z,101249.19
2022-07-29T22:27:13.902Z,101240.94
2022-07-29T22:30:16.773Z,101237.38
2022-07-29T22:33:18.729Z,101237.09
2022-07-29T22:36:20.944Z,101242.03
2022-07-29T22:39:23.123Z,101237.00
2022-07-29T22:42:25.688Z,101235.94
2022-07-29T22:45:27.695Z,101241.16
2022-07-29T22:48:29.946Z,101234.84
2022-07-29T22:51:32.539Z,101249.41
2022-07-29T22:54:34.659Z,101230.44
2022-07-29T22:57:36.873Z,101235.31
2022-07-29T23:00:39.103Z,101240.34
2022-07-29T23:03:41.267Z,101235.66
2022-07-29T23:06:53.586Z,101228.50
2022-07-29T23:09:55.643Z,101225.66
2022-07-29T23:12:57.887Z,101227.69
2022-07-29T23:16:01.266Z,101218.59
2022-07-29T23:19:03.433Z,101216.69
2022-07-29T23:22:05.558Z,101214.75
2022-07-29T23:25:08.026Z,101216.69
2022-07-29T23:28:11.641Z,101212.28
2022-07-29T23:31:15.481Z,101204.84
2022-07-29T23:34:17.709Z,101202.09
2022-07-29T23:37:20.035Z,101198.28
2022-07-29T23:40:22.149Z,101200.19
2022-07-29T23:43:24.931Z,101201.84
2022-07-29T23:46:27.020Z,101201.84
2022-07-29T23:49:29.006Z,101193.84
2022-07-29T23:52:31.179Z,101203.75
2022-07-29T23:55:38.180Z,101212.84
2022-07-29T23:58:41.450Z,101212.00
